Aviation Digital Data Service (ADDS)

Output produced by METARs form (0846 UTC 27 February 2020)
found at http://www.aviationweather.gov/metar/data/
 
Forecast for: ZSSS (SHANGHAI/HONGQIA, CN)
Text: TAF ZSSS 270309Z 2706/2806 08004MPS 6000 BKN020 TX13/2706Z TN09/2721Z
Forecast period: 0600 to 1200 UTC 27 February 2020
Forecast type: FROM: standard forecast or significant change
Winds: from the E (80 degrees) at 9 MPH (8 knots; 4.1 m/s)
Visibility: 4 miles (6 km)
Ceiling: 2000 feet AGL
Clouds: broken clouds at 2000 feet AGL
Weather: no significant weather forecast for this period
Text: BECMG 2712/2714 12004MPS
Forecast period: 1200 UTC 27 February 2020 to 0600 UTC 28 February 2020
Forecast type: BECOMING: Conditions expected to become as follows by 1400 UTC 27 February 2020
Winds: from the ESE (120 degrees) at 9 MPH (8 knots; 4.1 m/s)
Visibility: 4 miles (6 km)
Ceiling: 2000 feet AGL
Clouds: broken clouds at 2000 feet AGL
Weather: no significant weather forecast for this period